createdAt,value
2018-09-04T00:00:06.819Z,22.37
2018-09-04T00:02:35.184Z,23.27
2018-09-04T00:05:03.592Z,32.48
2018-09-04T00:07:31.957Z,21.30
2018-09-04T00:10:00.336Z,20.90
2018-09-04T00:12:28.715Z,19.85
2018-09-04T00:14:57.071Z,23.95
2018-09-04T00:17:25.519Z,23.87
2018-09-04T00:19:53.868Z,20.60
2018-09-04T00:22:22.261Z,17.87
2018-09-04T00:24:50.604Z,19.45
2018-09-04T00:27:18.988Z,18.50
2018-09-04T00:29:47.344Z,22.45
2018-09-04T00:32:15.753Z,27.40
2018-09-04T00:34:44.181Z,18.92
2018-09-04T00:37:13.482Z,17.12
2018-09-04T00:39:42.044Z,20.30
2018-09-04T00:42:10.428Z,22.52
2018-09-04T00:44:38.772Z,26.42
2018-09-04T00:47:07.214Z,21.62
2018-09-04T00:49:35.555Z,21.62
2018-09-04T00:52:03.923Z,23.12
2018-09-04T00:54:32.265Z,21.90
2018-09-04T00:57:00.641Z,19.12
2018-09-04T00:59:28.988Z,20.57
2018-09-04T01:01:57.867Z,20.70
2018-09-04T01:04:26.276Z,22.55
2018-09-04T01:06:54.728Z,24.00
2018-09-04T01:09:23.501Z,26.12
2018-09-04T01:11:52.314Z,21.73
2018-09-04T01:14:20.644Z,20.82
2018-09-04T01:16:49.000Z,22.87
2018-09-04T01:19:17.332Z,23.27
2018-09-04T01:21:45.687Z,22.90
2018-09-04T01:24:14.071Z,22.00
2018-09-04T01:26:42.445Z,20.20
2018-09-04T01:29:10.808Z,26.68
2018-09-04T01:31:39.168Z,22.52
2018-09-04T01:34:07.496Z,23.27
2018-09-04T01:36:35.819Z,19.95
2018-09-04T01:39:04.555Z,22.50
2018-09-04T01:41:33.007Z,18.52
2018-09-04T01:44:01.377Z,22.20
2018-09-04T01:46:29.715Z,23.52
2018-09-04T01:48:58.092Z,25.85
2018-09-04T01:51:26.530Z,28.77
2018-09-04T01:53:54.988Z,27.62
2018-09-04T01:56:23.344Z,26.23
2018-09-04T01:58:51.722Z,23.80
2018-09-04T02:01:20.089Z,25.50
2018-09-04T02:03:48.456Z,20.62
2018-09-04T02:06:16.800Z,24.65
2018-09-04T02:08:45.215Z,25.90
2018-09-04T02:11:13.549Z,20.82
2018-09-04T02:13:42.009Z,22.80
2018-09-04T02:16:10.364Z,22.82
2018-09-04T02:18:38.739Z,19.65
2018-09-04T02:21:07.081Z,25.43
2018-09-04T02:23:35.452Z,20.55
2018-09-04T02:26:03.789Z,26.02
2018-09-04T02:28:32.162Z,23.05
2018-09-04T02:31:00.533Z,31.82
2018-09-04T02:33:28.895Z,24.82
2018-09-04T02:35:57.227Z,28.70
2018-09-04T02:38:25.592Z,29.45
2018-09-04T02:40:53.948Z,25.40
2018-09-04T02:43:22.317Z,31.07
2018-09-04T02:45:50.643Z,34.92
2018-09-04T02:48:18.996Z,28.07
2018-09-04T02:50:47.381Z,27.82
2018-09-04T02:53:15.754Z,28.02
2018-09-04T02:55:44.080Z,28.92
2018-09-04T02:58:12.465Z,28.15
2018-09-04T03:00:40.821Z,28.67
2018-09-04T03:03:09.184Z,25.72
2018-09-04T03:05:37.516Z,28.87
2018-09-04T03:08:06.071Z,32.93
2018-09-04T03:10:34.408Z,31.80
2018-09-04T03:13:02.775Z,36.58
2018-09-04T03:15:31.116Z,33.78
2018-09-04T03:17:59.459Z,38.88
2018-09-04T03:20:27.816Z,36.35
2018-09-04T03:22:56.267Z,33.85
2018-09-04T03:25:24.600Z,34.98
2018-09-04T03:27:52.944Z,38.02
2018-09-04T03:30:21.320Z,38.63
2018-09-04T03:32:49.643Z,37.85
2018-09-04T03:35:18.007Z,35.35
2018-09-04T03:37:46.340Z,39.42
2018-09-04T03:40:14.731Z,32.20
2018-09-04T03:42:43.096Z,36.08
2018-09-04T03:45:11.587Z,30.72
2018-09-04T03:47:39.924Z,31.87
2018-09-04T03:50:08.844Z,30.20
2018-09-04T03:52:37.300Z,34.18
2018-09-04T03:55:05.744Z,38.78
2018-09-04T03:57:34.077Z,36.80
2018-09-04T04:00:02.446Z,40.98
2018-09-04T04:02:30.779Z,36.33
2018-09-04T04:04:59.147Z,31.57
2018-09-04T04:07:27.475Z,40.58
2018-09-04T04:09:55.873Z,32.80
2018-09-04T04:12:24.209Z,38.23
2018-09-04T04:14:52.575Z,28.87
2018-09-04T04:17:20.948Z,32.00
2018-09-04T04:19:49.336Z,31.48
2018-09-04T04:22:17.668Z,37.48
2018-09-04T04:24:46.029Z,30.97
2018-09-04T04:27:14.359Z,34.70
2018-09-04T04:29:42.748Z,36.00
2018-09-04T04:32:11.088Z,34.90
2018-09-04T04:34:39.454Z,32.53
2018-09-04T04:37:07.802Z,31.65
2018-09-04T04:39:36.175Z,39.83
2018-09-04T04:42:04.539Z,35.17
2018-09-04T04:44:32.899Z,40.67
2018-09-04T04:47:01.244Z,30.97
2018-09-04T04:49:29.625Z,43.13
2018-09-04T04:51:58.005Z,35.58
2018-09-04T04:54:26.359Z,36.70
2018-09-04T04:56:54.740Z,38.78
2018-09-04T04:59:23.079Z,37.65
2018-09-04T05:01:51.436Z,45.60
2018-09-04T05:04:19.768Z,38.83
2018-09-04T05:06:48.149Z,39.88
2018-09-04T05:09:16.563Z,41.53
2018-09-04T05:11:44.949Z,39.27
2018-09-04T05:14:13.380Z,42.83
2018-09-04T05:16:41.756Z,38.30
2018-09-04T05:19:10.154Z,38.10
2018-09-04T05:21:38.504Z,37.03
2018-09-04T05:24:06.900Z,42.58
2018-09-04T05:26:35.265Z,48.15
2018-09-04T05:29:03.630Z,36.48
2018-09-04T05:31:36.485Z,42.75
2018-09-04T05:34:04.864Z,38.30
2018-09-04T05:36:33.218Z,43.10
2018-09-04T05:39:01.552Z,38.42
2018-09-04T05:41:29.920Z,37.13
2018-09-04T05:43:59.940Z,43.92
2018-09-04T05:46:33.645Z,43.20
2018-09-04T05:49:02.360Z,31.85
2018-09-04T05:51:30.752Z,34.80
2018-09-04T05:53:59.192Z,34.03
2018-09-04T05:56:27.572Z,35.92
2018-09-04T05:58:55.924Z,39.35
2018-09-04T06:01:24.319Z,36.75
2018-09-04T06:03:52.993Z,35.65
2018-09-04T06:06:21.372Z,29.10
2018-09-04T06:08:50.068Z,33.63
2018-09-04T06:11:18.548Z,34.35
2018-09-04T06:13:46.883Z,33.60
2018-09-04T06:16:15.248Z,30.88
2018-09-04T06:18:43.627Z,31.35
2018-09-04T06:21:12.040Z,29.98
2018-09-04T06:23:40.445Z,36.58
2018-09-04T06:26:08.824Z,37.10
2018-09-04T06:28:37.300Z,28.42
2018-09-04T06:31:05.685Z,27.02
2018-09-04T06:33:34.048Z,32.08
2018-09-04T06:36:02.399Z,30.75
2018-09-04T06:38:30.756Z,37.70
2018-09-04T06:40:59.080Z,28.20
2018-09-04T06:43:27.459Z,34.55
2018-09-04T06:45:55.799Z,39.00
2018-09-04T06:48:24.164Z,28.85
2018-09-04T06:50:52.492Z,34.90
2018-09-04T06:53:20.864Z,28.32
2018-09-04T06:55:49.218Z,38.88
2018-09-04T06:58:17.721Z,32.35
2018-09-04T07:00:46.060Z,36.80
2018-09-04T07:03:14.445Z,30.82
2018-09-04T07:05:42.792Z,27.73
2018-09-04T07:08:11.197Z,34.73
2018-09-04T07:10:39.536Z,35.75
2018-09-04T07:13:07.914Z,32.13
2018-09-04T07:15:36.249Z,34.03
2018-09-04T07:18:04.882Z,36.80
2018-09-04T07:20:33.348Z,36.68
2018-09-04T07:23:01.732Z,31.00
2018-09-04T07:25:30.148Z,27.30
2018-09-04T07:27:58.524Z,31.12
2018-09-04T07:30:26.851Z,30.97
2018-09-04T07:32:55.208Z,29.80
2018-09-04T07:35:23.764Z,28.07
2018-09-04T07:37:52.160Z,28.87
2018-09-04T07:40:20.485Z,32.13
2018-09-04T07:42:48.851Z,26.68
2018-09-04T07:45:17.193Z,34.10
2018-09-04T07:47:45.628Z,27.52
2018-09-04T07:50:14.056Z,34.30
2018-09-04T07:52:42.432Z,32.63
2018-09-04T07:55:10.824Z,29.98
2018-09-04T07:57:39.208Z,34.58
2018-09-04T08:00:08.423Z,36.50
2018-09-04T08:02:36.848Z,31.65
2018-09-04T08:05:05.662Z,36.42
2018-09-04T08:07:34.277Z,32.98
2018-09-04T08:10:02.677Z,30.37
2018-09-04T08:12:31.040Z,30.52
2018-09-04T08:14:59.419Z,41.33
2018-09-04T08:17:27.774Z,31.77
2018-09-04T08:19:56.116Z,36.88
2018-09-04T08:22:24.582Z,31.95
2018-09-04T08:24:52.973Z,31.42
2018-09-04T08:27:21.324Z,32.50
2018-09-04T08:29:49.680Z,30.92
2018-09-04T08:32:18.016Z,44.15
2018-09-04T08:34:46.469Z,36.23
2018-09-04T08:37:14.813Z,37.45
2018-09-04T08:39:43.171Z,33.70
2018-09-04T08:42:11.541Z,34.33
2018-09-04T08:44:39.902Z,26.73
2018-09-04T08:47:08.272Z,32.42
2018-09-04T08:49:36.639Z,31.82
2018-09-04T08:52:05.028Z,31.60
2018-09-04T08:54:33.420Z,35.03
2018-09-04T08:57:01.772Z,30.90
2018-09-04T08:59:30.278Z,36.05
2018-09-04T09:01:58.907Z,29.45
2018-09-04T09:04:27.300Z,24.40
2018-09-04T09:06:55.728Z,27.45
2018-09-04T09:09:24.119Z,29.92
2018-09-04T09:11:52.461Z,27.67
2018-09-04T09:14:20.820Z,27.65
2018-09-04T09:16:49.264Z,24.72
2018-09-04T09:19:17.575Z,21.97
2018-09-04T09:21:45.918Z,29.70
2018-09-04T09:24:14.279Z,25.97
2018-09-04T09:26:42.820Z,25.50
2018-09-04T09:29:11.183Z,28.60
2018-09-04T09:31:39.544Z,25.72
2018-09-04T09:34:07.919Z,25.75
2018-09-04T09:36:36.339Z,26.97
2018-09-04T09:39:06.220Z,26.12
2018-09-04T09:41:34.548Z,24.57
2018-09-04T09:44:02.905Z,23.38
2018-09-04T09:46:31.231Z,23.95
2018-09-04T09:48:59.588Z,26.17
2018-09-04T09:51:27.952Z,30.65
2018-09-04T09:53:56.354Z,29.98
2018-09-04T09:56:24.765Z,28.50
2018-09-04T09:58:53.108Z,25.40
2018-09-04T10:01:26.760Z,36.65
2018-09-04T10:03:58.108Z,32.50
2018-09-04T10:06:26.536Z,28.25
2018-09-04T10:08:54.928Z,26.52
2018-09-04T10:11:23.508Z,31.45
2018-09-04T10:13:51.832Z,28.32
2018-09-04T10:16:20.195Z,20.70
2018-09-04T10:18:48.592Z,20.52
2018-09-04T10:21:17.368Z,20.95
2018-09-04T10:23:45.722Z,21.90
2018-09-04T10:26:14.125Z,20.23
2018-09-04T10:28:42.452Z,28.57
2018-09-04T10:31:10.803Z,22.85
2018-09-04T10:33:39.137Z,24.75
2018-09-04T10:36:07.558Z,20.25
2018-09-04T10:38:35.864Z,20.05
2018-09-04T10:41:04.816Z,23.15
2018-09-04T10:43:33.253Z,22.13
2018-09-04T10:46:03.809Z,19.10
2018-09-04T10:48:32.231Z,23.95
2018-09-04T10:51:00.993Z,20.35
2018-09-04T10:53:29.365Z,19.23
2018-09-04T10:55:57.732Z,23.00
2018-09-04T10:58:26.153Z,25.00
2018-09-04T11:00:54.584Z,18.57
2018-09-04T11:03:22.947Z,24.10
2018-09-04T11:05:51.322Z,22.25
2018-09-04T11:08:20.052Z,23.92
2018-09-04T11:10:48.532Z,21.15
2018-09-04T11:13:16.905Z,28.32
2018-09-04T11:15:45.259Z,22.93
2018-09-04T11:18:13.604Z,23.50
2018-09-04T11:20:41.973Z,21.60
2018-09-04T11:23:10.368Z,21.73
2018-09-04T11:25:38.776Z,20.55
2018-09-04T11:28:07.257Z,17.98
2018-09-04T11:30:35.678Z,20.72
2018-09-04T11:33:04.072Z,30.12
2018-09-04T11:35:32.496Z,24.18
2018-09-04T11:38:00.828Z,18.27
2018-09-04T11:40:29.277Z,21.17
2018-09-04T11:42:57.585Z,23.90
2018-09-04T11:45:25.917Z,21.23
2018-09-04T11:47:54.284Z,19.00
2018-09-04T11:50:22.612Z,16.95
2018-09-04T11:52:50.981Z,26.60
2018-09-04T11:55:19.317Z,19.62
2018-09-04T11:57:47.686Z,18.27
2018-09-04T12:00:17.153Z,18.62
2018-09-04T12:02:45.964Z,16.52
2018-09-04T12:05:14.316Z,21.52
2018-09-04T12:07:42.698Z,21.33
2018-09-04T12:10:11.075Z,22.13
2018-09-04T12:12:39.473Z,17.37
2018-09-04T12:15:07.796Z,20.90
2018-09-04T12:17:36.176Z,17.15
2018-09-04T12:20:19.360Z,16.82
2018-09-04T12:22:47.736Z,15.35
2018-09-04T12:25:16.132Z,20.70
2018-09-04T12:27:44.505Z,20.32
2018-09-04T12:30:12.852Z,15.72
2018-09-04T12:32:41.240Z,16.42
2018-09-04T12:35:09.592Z,14.23
2018-09-04T12:37:37.971Z,12.07
2018-09-04T12:40:06.623Z,17.87
2018-09-04T12:42:35.048Z,16.10
2018-09-04T12:45:03.416Z,14.55
2018-09-04T12:47:31.804Z,12.10
2018-09-04T12:50:00.187Z,8.05
2018-09-04T12:52:29.442Z,13.15
2018-09-04T12:54:57.808Z,12.15
2018-09-04T12:57:26.204Z,12.70
2018-09-04T12:59:54.605Z,11.25
2018-09-04T13:02:22.968Z,38.08
2018-09-04T13:04:51.348Z,9.60
2018-09-04T13:07:19.732Z,14.43
2018-09-04T13:09:48.128Z,10.90
2018-09-04T13:12:16.524Z,14.15
2018-09-04T13:14:44.922Z,12.33
2018-09-04T13:17:13.437Z,17.48
2018-09-04T13:19:41.808Z,14.77
2018-09-04T13:22:10.211Z,25.60
2018-09-04T13:24:38.552Z,17.62
2018-09-04T13:27:06.919Z,19.10
2018-09-04T13:29:35.268Z,21.17
2018-09-04T13:32:03.632Z,17.87
2018-09-04T13:34:32.016Z,19.57
2018-09-04T13:37:00.405Z,19.12
2018-09-04T13:39:28.782Z,21.10
2018-09-04T13:41:57.141Z,17.92
2018-09-04T13:44:25.524Z,28.00
2018-09-04T13:46:54.347Z,30.17
2018-09-04T13:49:22.798Z,23.60
2018-09-04T13:51:51.087Z,22.98
2018-09-04T13:54:19.464Z,17.55
2018-09-04T13:56:47.848Z,18.77
2018-09-04T13:59:16.216Z,18.25
2018-09-04T14:01:44.564Z,16.93
2018-09-04T14:04:12.945Z,18.73
2018-09-04T14:06:41.284Z,17.30
2018-09-04T14:09:09.749Z,16.77
2018-09-04T14:11:38.564Z,27.00
2018-09-04T14:14:06.944Z,17.85
2018-09-04T14:16:43.149Z,17.35
2018-09-04T14:19:03.730Z,17.75
2018-09-04T14:21:33.084Z,15.05
2018-09-04T14:24:01.488Z,16.77
2018-09-04T14:26:29.836Z,21.15
2018-09-04T14:29:09.267Z,17.40
2018-09-04T14:31:26.590Z,19.23
2018-09-04T14:33:54.961Z,14.55
2018-09-04T14:36:23.416Z,16.67
2018-09-04T14:38:51.740Z,13.10
2018-09-04T14:41:20.106Z,16.12
2018-09-04T14:43:48.482Z,22.45
2018-09-04T14:46:16.840Z,15.85
2018-09-04T14:48:45.244Z,15.03
2018-09-04T14:51:13.612Z,14.58
2018-09-04T14:53:42.017Z,15.25
2018-09-04T14:56:10.364Z,15.40
2018-09-04T14:58:38.758Z,17.37
2018-09-04T15:01:07.106Z,16.32
2018-09-04T15:03:35.471Z,15.47
2018-09-04T15:06:03.860Z,11.20
2018-09-04T15:08:32.241Z,15.65
2018-09-04T15:11:00.593Z,11.18
2018-09-04T15:13:28.984Z,11.10
2018-09-04T15:15:57.379Z,11.37
2018-09-04T15:18:25.704Z,13.80
2018-09-04T15:20:54.049Z,11.63
2018-09-04T15:23:22.567Z,16.55
2018-09-04T15:25:50.916Z,13.20
2018-09-04T15:28:19.263Z,15.98
2018-09-04T15:30:47.661Z,10.87
2018-09-04T15:33:16.012Z,12.87
2018-09-04T15:35:44.399Z,14.18
2018-09-04T15:38:12.754Z,13.18
2018-09-04T15:40:41.157Z,13.47
2018-09-04T15:43:09.516Z,12.43
2018-09-04T15:45:37.903Z,12.90
2018-09-04T15:48:06.302Z,11.07
2018-09-04T15:50:34.693Z,11.43
2018-09-04T15:53:03.053Z,11.27
2018-09-04T15:55:31.445Z,14.55
2018-09-04T15:57:59.788Z,13.93
2018-09-04T16:00:28.169Z,13.30
2018-09-04T16:02:56.515Z,16.20
2018-09-04T16:05:24.923Z,17.97
2018-09-04T16:07:53.264Z,20.67
2018-09-04T16:10:21.771Z,20.80
2018-09-04T16:12:50.068Z,18.25
2018-09-04T16:15:18.471Z,14.37
2018-09-04T16:17:47.064Z,13.13
2018-09-04T16:20:53.600Z,14.28
2018-09-04T16:23:21.955Z,18.85
2018-09-04T16:25:50.484Z,17.60
2018-09-04T16:28:18.896Z,13.57
2018-09-04T16:30:47.267Z,17.48
2018-09-04T16:33:15.602Z,14.45
2018-09-04T16:35:44.031Z,20.85
2018-09-04T16:38:12.377Z,18.87
2018-09-04T16:40:40.795Z,15.10
2018-09-04T16:43:09.123Z,14.10
2018-09-04T16:45:37.514Z,17.32
2018-09-04T16:48:05.868Z,14.83
2018-09-04T16:50:34.247Z,16.70
2018-09-04T16:53:02.624Z,16.90
2018-09-04T16:55:31.004Z,14.83
2018-09-04T16:57:59.388Z,14.58
2018-09-04T17:00:27.792Z,22.27
2018-09-04T17:02:56.141Z,17.20
2018-09-04T17:05:24.516Z,13.45
2018-09-04T17:07:53.010Z,20.85
2018-09-04T17:10:21.446Z,16.60
2018-09-04T17:12:49.823Z,14.10
2018-09-04T17:15:18.198Z,17.80
2018-09-04T17:17:46.555Z,18.67
2018-09-04T17:20:14.940Z,19.67
2018-09-04T17:22:43.315Z,15.25
2018-09-04T17:25:11.693Z,13.60
2018-09-04T17:27:40.051Z,15.00
2018-09-04T17:30:08.410Z,14.50
2018-09-04T17:32:36.773Z,19.52
2018-09-04T17:35:05.280Z,14.90
2018-09-04T17:37:33.698Z,16.23
2018-09-04T17:40:02.076Z,18.00
2018-09-04T17:42:30.497Z,15.90
2018-09-04T17:44:58.905Z,19.35
2018-09-04T17:47:27.344Z,18.12
2018-09-04T17:49:55.683Z,17.62
2018-09-04T17:52:24.048Z,19.90
2018-09-04T17:54:52.444Z,18.75
2018-09-04T17:57:20.793Z,16.75
2018-09-04T17:59:49.146Z,23.07
2018-09-04T18:02:17.536Z,18.67
2018-09-04T18:04:45.873Z,17.75
2018-09-04T18:07:14.252Z,19.98
2018-09-04T18:09:42.626Z,28.83
2018-09-04T18:12:11.053Z,23.83
2018-09-04T18:14:39.368Z,27.95
2018-09-04T18:17:08.271Z,37.58
2018-09-04T18:19:36.648Z,20.37
2018-09-04T18:22:05.033Z,21.95
2018-09-04T18:24:33.456Z,27.10
2018-09-04T18:27:01.859Z,23.95
2018-09-04T18:29:30.202Z,20.40
2018-09-04T18:31:58.599Z,19.75
2018-09-04T18:34:26.982Z,19.92
2018-09-04T18:36:55.355Z,20.97
2018-09-04T18:39:23.703Z,20.50
2018-09-04T18:41:52.147Z,17.05
2018-09-04T18:44:20.545Z,19.80
2018-09-04T18:46:48.950Z,18.10
2018-09-04T18:49:17.348Z,20.72
2018-09-04T18:51:45.672Z,18.92
2018-09-04T18:54:14.156Z,22.17
2018-09-04T18:56:42.540Z,16.82
2018-09-04T18:59:10.967Z,23.05
2018-09-04T19:01:39.280Z,20.10
2018-09-04T19:04:07.636Z,21.23
2018-09-04T19:06:36.096Z,21.17
2018-09-04T19:09:05.759Z,26.60
2018-09-04T19:11:34.124Z,22.60
2018-09-04T19:14:02.586Z,21.17
2018-09-04T19:16:30.916Z,21.85
2018-09-04T19:18:59.278Z,17.23
2018-09-04T19:21:27.640Z,22.77
2018-09-04T19:23:56.020Z,27.20
2018-09-04T19:26:24.372Z,29.02
2018-09-04T19:28:52.752Z,20.08
2018-09-04T19:31:21.096Z,19.05
2018-09-04T19:33:49.461Z,28.83
2018-09-04T19:36:18.557Z,22.25
2018-09-04T19:38:46.936Z,27.87
2018-09-04T19:41:15.268Z,21.80
2018-09-04T19:43:43.670Z,21.27
2018-09-04T19:46:12.024Z,21.77
2018-09-04T19:48:40.404Z,21.62
2018-09-04T19:51:08.754Z,24.07
2018-09-04T19:53:37.231Z,21.42
2018-09-04T19:56:05.797Z,22.67
2018-09-04T19:58:34.173Z,24.80
2018-09-04T20:01:02.613Z,25.45
2018-09-04T20:03:30.996Z,19.57
2018-09-04T20:05:59.336Z,21.82
2018-09-04T20:08:27.816Z,26.42
2018-09-04T20:10:56.160Z,24.00
2018-09-04T20:13:24.579Z,26.90
2018-09-04T20:15:52.895Z,19.02
2018-09-04T20:18:21.264Z,25.82
2018-09-04T20:20:49.605Z,24.80
2018-09-04T20:23:18.012Z,26.05
2018-09-04T20:25:46.348Z,23.60
2018-09-04T20:28:14.845Z,26.50
2018-09-04T20:30:43.219Z,24.40
2018-09-04T20:33:11.658Z,28.45
2018-09-04T20:35:40.000Z,21.30
2018-09-04T20:38:08.376Z,28.25
2018-09-04T20:40:36.784Z,28.52
2018-09-04T20:43:05.282Z,26.35
2018-09-04T20:45:33.659Z,32.58
2018-09-04T20:48:02.109Z,23.85
2018-09-04T20:50:30.473Z,23.05
2018-09-04T20:52:58.815Z,21.35
2018-09-04T20:55:27.213Z,21.75
2018-09-04T20:58:06.963Z,24.30
2018-09-04T21:00:46.713Z,22.35
2018-09-04T21:03:26.296Z,49.35
2018-09-04T21:06:05.972Z,26.15
2018-09-04T21:08:47.488Z,34.53
2018-09-04T21:11:15.825Z,27.85
2018-09-04T21:13:44.181Z,25.70
2018-09-04T21:16:12.505Z,25.40
2018-09-04T21:18:40.870Z,25.12
2018-09-04T21:21:09.205Z,23.73
2018-09-04T21:23:37.576Z,20.75
2018-09-04T21:26:06.022Z,22.13
2018-09-04T21:28:34.353Z,27.40
2018-09-04T21:31:02.712Z,27.07
2018-09-04T21:33:31.064Z,25.12
2018-09-04T21:35:59.520Z,26.40
2018-09-04T21:38:27.860Z,25.88
2018-09-04T21:40:56.227Z,29.75
2018-09-04T21:43:24.564Z,26.95
2018-09-04T21:45:52.963Z,23.27
2018-09-04T21:48:21.384Z,21.00
2018-09-04T21:50:49.756Z,23.35
2018-09-04T21:53:18.502Z,24.10
2018-09-04T21:55:46.927Z,35.17
2018-09-04T21:58:15.283Z,33.18
2018-09-04T22:00:43.664Z,22.82
2018-09-04T22:03:12.021Z,26.17
2018-09-04T22:05:40.915Z,26.07
2018-09-04T22:08:09.288Z,24.15
2018-09-04T22:10:37.691Z,42.98
2018-09-04T22:13:06.893Z,31.73
2018-09-04T22:15:35.228Z,24.50
2018-09-04T22:18:03.552Z,33.60
2018-09-04T22:20:31.920Z,26.17
2018-09-04T22:23:00.260Z,24.70
2018-09-04T22:25:28.683Z,26.23
2018-09-04T22:27:57.112Z,20.27
2018-09-04T22:30:26.123Z,24.82
2018-09-04T22:32:54.788Z,26.68
2018-09-04T22:35:23.171Z,26.42
2018-09-04T22:37:51.504Z,35.28
2018-09-04T22:40:19.878Z,26.87
2018-09-04T22:42:48.203Z,24.67
2018-09-04T22:45:16.550Z,27.35
2018-09-04T22:47:44.928Z,30.37
2018-09-04T22:50:18.419Z,29.10
2018-09-04T22:52:46.776Z,24.18
2018-09-04T22:55:15.097Z,25.88
2018-09-04T22:57:44.348Z,25.68
2018-09-04T23:00:13.847Z,26.05
2018-09-04T23:02:42.462Z,29.35
2018-09-04T23:05:10.993Z,29.67
2018-09-04T23:07:39.368Z,30.15
2018-09-04T23:10:07.883Z,28.95
2018-09-04T23:12:36.231Z,25.97
2018-09-04T23:15:04.740Z,27.27
2018-09-04T23:17:33.096Z,27.67
2018-09-04T23:20:01.446Z,24.85
2018-09-04T23:22:29.803Z,27.52
2018-09-04T23:24:58.161Z,28.83
2018-09-04T23:27:26.533Z,24.82
2018-09-04T23:29:54.864Z,25.97
2018-09-04T23:32:23.230Z,24.25
2018-09-04T23:34:51.576Z,29.55
2018-09-04T23:37:19.932Z,26.42
2018-09-04T23:39:48.277Z,24.23
2018-09-04T23:42:16.621Z,27.67
2018-09-04T23:44:44.959Z,22.45
2018-09-04T23:47:13.334Z,29.48
2018-09-04T23:49:41.708Z,23.95
2018-09-04T23:52:10.076Z,25.52
2018-09-04T23:54:38.404Z,29.70
2018-09-04T23:57:06.773Z,27.48
2018-09-04T23:59:35.088Z,23.38
